Time;durP1;ratioP1;P1;durP2;ratioP2;P2;SDS_P1;SDS_P2;PMS_P1;PMS_P2;Temp;Humidity;BMP_temperature;BMP_pressure;BME280_temperature;BME280_humidity;BME280_pressure;Samples;Min_cycle;Max_cycle;Signal;HPM_P1;HPM_P2
2021/01/10 00:00:11;;;;;;;13.35;9.20;;;0.10;91.10;;;;;;5052747;28;20219;-79
2021/01/10 00:02:38;;;;;;;12.68;9.20;;;0.20;91.00;;;;;;5052126;28;20211;-79
2021/01/10 00:05:07;;;;;;;12.38;8.55;;;0.30;90.80;;;;;;5052404;28;20244;-78
2021/01/10 00:07:34;;;;;;;15.55;10.02;;;0.30;90.60;;;;;;5051571;28;20204;-79
2021/01/10 00:10:00;;;;;;;16.92;10.57;;;0.30;90.50;;;;;;5052244;28;20204;-79
2021/01/10 00:12:28;;;;;;;13.95;9.25;;;0.30;90.40;;;;;;5052742;28;20208;-79
2021/01/10 00:14:55;;;;;;;12.32;10.10;;;0.20;90.50;;;;;;5051999;28;20235;-78
2021/01/10 00:17:22;;;;;;;14.30;10.50;;;0.20;90.60;;;;;;5051121;28;20283;-78
2021/01/10 00:19:49;;;;;;;13.43;9.93;;;0.20;90.80;;;;;;5031937;28;20688;-78
2021/01/10 00:22:18;;;;;;;15.18;10.48;;;0.20;90.90;;;;;;5048455;28;20214;-79
2021/01/10 00:24:45;;;;;;;10.82;8.63;;;0.20;91.10;;;;;;5051272;28;20206;-79
2021/01/10 00:27:13;;;;;;;14.20;9.43;;;-0.20;90.80;;;;;;5051738;28;20207;-78
2021/01/10 00:29:43;;;;;;;15.80;10.75;;;-0.20;90.90;;;;;;5051328;28;20228;-78
2021/01/10 00:32:10;;;;;;;12.38;9.57;;;-0.20;91.10;;;;;;5051561;28;20204;-78
2021/01/10 00:34:37;;;;;;;12.70;9.65;;;-0.10;91.20;;;;;;5051208;28;20653;-79
2021/01/10 00:37:09;;;;;;;15.98;11.00;;;-0.30;91.10;;;;;;5051276;28;20681;-79
2021/01/10 00:39:35;;;;;;;11.70;9.02;;;-0.30;91.20;;;;;;5051351;28;20657;-79
2021/01/10 00:42:05;;;;;;;13.88;9.77;;;-0.30;91.50;;;;;;5051589;28;20231;-78
2021/01/10 00:44:31;;;;;;;14.10;10.80;;;-0.20;91.40;;;;;;5051209;28;20689;-78
2021/01/10 00:46:58;;;;;;;11.10;9.10;;;0.20;91.40;;;;;;5051427;28;20235;-78
2021/01/10 00:49:25;;;;;;;14.52;9.35;;;-0.30;91.30;;;;;;5050281;28;20188;-78
2021/01/10 00:51:52;;;;;;;15.48;10.18;;;-0.20;91.30;;;;;;5051452;28;20646;-78
2021/01/10 00:54:18;;;;;;;17.88;10.60;;;-0.20;91.20;;;;;;5050828;28;20200;-79
2021/01/10 00:56:45;;;;;;;13.02;10.82;;;-0.10;91.20;;;;;;5050862;28;20246;-79
2021/01/10 00:59:11;;;;;;;12.02;9.25;;;0.00;91.20;;;;;;5050407;28;20195;-78
2021/01/10 01:01:38;;;;;;;16.10;9.80;;;-0.10;91.10;;;;;;5051284;28;20208;-79
2021/01/10 01:04:06;;;;;;;17.00;10.82;;;-0.10;91.20;;;;;;5051084;28;20196;-78
2021/01/10 01:06:32;;;;;;;11.80;9.25;;;-0.10;91.30;;;;;;5050950;28;20578;-79
2021/01/10 01:08:59;;;;;;;11.93;8.65;;;-0.20;91.20;;;;;;5050017;28;20614;-78
2021/01/10 01:11:29;;;;;;;12.85;9.52;;;0.00;91.30;;;;;;5050645;28;20204;-78
2021/01/10 01:13:55;;;;;;;18.67;11.43;;;0.00;91.40;;;;;;5051004;28;20200;-79
2021/01/10 01:16:22;;;;;;;11.80;8.90;;;0.10;91.80;;;;;;5051200;28;20527;-79
2021/01/10 01:18:48;;;;;;;13.63;8.57;;;0.10;91.60;;;;;;5050445;28;20587;-79
2021/01/10 01:21:17;;;;;;;14.95;11.00;;;0.20;91.40;;;;;;5051309;28;20249;-79
2021/01/10 01:23:43;;;;;;;13.75;8.90;;;0.30;91.20;;;;;;5051002;28;20609;-78
2021/01/10 01:26:15;;;;;;;15.15;9.15;;;0.50;92.60;;;;;;5050859;28;20220;-78
2021/01/10 01:28:43;;;;;;;12.98;9.60;;;0.40;90.80;;;;;;5050020;28;20486;-79
2021/01/10 01:31:13;;;;;;;14.98;9.85;;;0.40;90.70;;;;;;5051254;28;20226;-79
2021/01/10 01:33:40;;;;;;;15.80;10.32;;;0.40;90.70;;;;;;5050768;28;20281;-78
2021/01/10 01:36:10;;;;;;;12.07;8.70;;;0.40;91.00;;;;;;5051173;28;20231;-79
2021/01/10 01:38:38;;;;;;;13.90;8.95;;;0.30;91.30;;;;;;5049611;28;20280;-79
2021/01/10 01:41:06;;;;;;;11.98;9.25;;;0.50;91.40;;;;;;5051369;28;20199;-79
2021/01/10 01:43:33;;;;;;;12.93;9.63;;;0.20;91.60;;;;;;5050656;28;20229;-79
2021/01/10 01:46:01;;;;;;;16.48;10.77;;;0.20;91.50;;;;;;5055284;28;20219;-78
2021/01/10 01:48:28;;;;;;;13.18;9.70;;;0.10;91.30;;;;;;5053358;28;20563;-78
2021/01/10 01:50:56;;;;;;;11.60;9.95;;;0.20;91.50;;;;;;5054647;28;20239;-78
2021/01/10 01:53:23;;;;;;;10.82;7.55;;;0.30;91.50;;;;;;5054666;28;20200;-78
2021/01/10 01:55:52;;;;;;;15.40;8.07;;;0.20;91.00;;;;;;5054970;28;20231;-78
2021/01/10 01:58:19;;;;;;;14.70;9.93;;;0.30;90.90;;;;;;5054154;28;20218;-79
2021/01/10 02:00:45;;;;;;;11.35;9.25;;;0.30;90.80;;;;;;5054055;28;20208;-78
2021/01/10 02:03:20;;;;;;;15.93;10.95;;;0.30;90.80;;;;;;5053334;28;20203;-78
2021/01/10 02:05:54;;;;;;;14.60;11.00;;;0.20;91.30;;;;;;5054030;28;20226;-79
2021/01/10 02:08:23;;;;;;;14.20;10.90;;;0.20;91.40;;;;;;5053475;28;20550;-78
2021/01/10 02:10:53;;;;;;;14.20;12.63;;;0.20;91.80;;;;;;5054222;28;20208;-79
2021/01/10 02:13:21;;;;;;;19.63;13.32;;;0.20;91.70;;;;;;5053631;28;20198;-78
2021/01/10 02:15:53;;;;;;;15.88;13.13;;;0.20;91.50;;;;;;5049045;28;20207;-78
2021/01/10 02:18:23;;;;;;;16.30;12.25;;;0.20;91.80;;;;;;5051194;28;20289;-79
2021/01/10 02:20:55;;;;;;;18.90;11.95;;;0.10;91.80;;;;;;5053736;28;20734;-78
2021/01/10 02:23:26;;;;;;;12.60;10.05;;;0.20;91.70;;;;;;5054509;28;20241;-79
2021/01/10 02:25:55;;;;;;;12.43;9.80;;;0.20;91.60;;;;;;5054666;28;20705;-79
2021/01/10 02:28:25;;;;;;;18.17;9.85;;;0.30;91.20;;;;;;5053106;28;20192;-78
2021/01/10 02:30:54;;;;;;;12.20;7.90;;;0.20;90.90;;;;;;5054514;28;20227;-79
2021/01/10 02:33:28;;;;;;;12.05;9.25;;;0.10;90.80;;;;;;5054499;28;20188;-79
2021/01/10 02:35:57;;;;;;;10.07;8.32;;;0.20;91.00;;;;;;5054397;28;20770;-79
2021/01/10 02:38:34;;;;;;;12.23;8.68;;;0.20;90.80;;;;;;5053427;28;20623;-79
2021/01/10 02:41:12;;;;;;;10.43;9.32;;;0.10;90.60;;;;;;5053261;28;20200;-79
2021/01/10 02:43:50;;;;;;;9.77;8.20;;;0.00;90.60;;;;;;5054111;28;20245;-78
2021/01/10 02:46:19;;;;;;;10.60;8.63;;;0.00;90.70;;;;;;5053113;28;20228;-79
2021/01/10 02:48:46;;;;;;;11.52;8.52;;;0.00;90.70;;;;;;5052413;28;20197;-78
2021/01/10 02:51:14;;;;;;;10.50;8.75;;;0.00;90.80;;;;;;5053335;28;20560;-78
2021/01/10 02:53:42;;;;;;;10.63;7.85;;;0.00;90.70;;;;;;5054126;28;20211;-78
2021/01/10 02:56:10;;;;;;;9.75;8.05;;;0.00;90.90;;;;;;5052728;28;20200;-78
2021/01/10 02:58:40;;;;;;;10.85;8.00;;;-0.10;90.60;;;;;;5053012;28;20204;-78
2021/01/10 03:01:10;;;;;;;14.82;9.40;;;-0.10;90.70;;;;;;5053550;28;20216;-78
2021/01/10 03:03:38;;;;;;;11.95;8.70;;;-0.10;90.70;;;;;;5040731;28;20662;-78
2021/01/10 03:06:06;;;;;;;10.80;9.05;;;-0.20;90.60;;;;;;5052989;28;20208;-78
2021/01/10 03:08:33;;;;;;;11.10;8.35;;;-0.30;90.80;;;;;;5052266;28;20192;-78
2021/01/10 03:11:00;;;;;;;13.18;8.85;;;-0.30;90.90;;;;;;5053223;28;20203;-79
2021/01/10 03:13:28;;;;;;;9.48;7.75;;;-0.30;90.90;;;;;;5052913;28;20208;-78
2021/01/10 03:15:54;;;;;;;13.85;9.90;;;-0.30;90.80;;;;;;5052846;28;20203;-78
2021/01/10 03:18:23;;;;;;;14.13;9.20;;;-0.30;90.90;;;;;;5051717;28;20196;-78
2021/01/10 03:20:50;;;;;;;14.32;9.93;;;-0.20;91.20;;;;;;5053091;28;20204;-78
2021/01/10 03:23:17;;;;;;;11.93;8.88;;;-0.60;91.30;;;;;;5052530;28;20193;-78
2021/01/10 03:25:44;;;;;;;14.15;10.93;;;-0.70;91.40;;;;;;5053318;28;20212;-78
2021/01/10 03:28:10;;;;;;;13.18;9.45;;;-0.90;91.50;;;;;;5052193;28;20188;-78
2021/01/10 03:30:38;;;;;;;16.77;10.68;;;-1.10;91.90;;;;;;5052595;28;20200;-78
2021/01/10 03:33:05;;;;;;;13.70;8.85;;;-1.10;92.40;;;;;;5052882;28;20691;-78
2021/01/10 03:35:34;;;;;;;12.48;9.30;;;-1.10;92.20;;;;;;5053316;28;20618;-79
2021/01/10 03:38:02;;;;;;;10.00;8.00;;;-1.00;92.30;;;;;;5052706;28;20551;-78
2021/01/10 03:40:29;;;;;;;17.58;9.55;;;-1.10;92.90;;;;;;5053431;28;20689;-78
2021/01/10 03:42:55;;;;;;;11.77;8.88;;;-1.00;92.30;;;;;;5053056;28;20192;-78
2021/01/10 03:45:22;;;;;;;12.65;10.00;;;-1.00;92.20;;;;;;5052364;28;20677;-78
2021/01/10 03:47:49;;;;;;;14.60;9.32;;;-1.00;92.20;;;;;;5050317;28;20581;-78
2021/01/10 03:50:15;;;;;;;13.38;8.90;;;-1.10;92.40;;;;;;5052549;28;20211;-78
2021/01/10 03:52:42;;;;;;;11.60;8.65;;;-1.10;92.70;;;;;;5052126;28;20246;-79
2021/01/10 03:55:09;;;;;;;11.68;9.68;;;-0.90;92.80;;;;;;5052185;28;20197;-78
2021/01/10 03:57:38;;;;;;;11.93;8.32;;;-0.80;92.20;;;;;;5051509;28;20199;-79
2021/01/10 04:00:07;;;;;;;13.93;10.02;;;-0.80;92.20;;;;;;5052021;28;21029;-78
2021/01/10 04:02:33;;;;;;;11.00;8.57;;;-0.80;91.90;;;;;;5052340;28;20200;-78
2021/01/10 04:05:01;;;;;;;15.80;8.57;;;-0.80;91.90;;;;;;5052723;28;20690;-79
2021/01/10 04:07:27;;;;;;;14.68;9.30;;;-0.50;91.90;;;;;;5051438;28;20192;-78
2021/01/10 04:09:54;;;;;;;12.80;10.05;;;-0.70;91.70;;;;;;5052413;28;20523;-78
2021/01/10 04:12:21;;;;;;;14.68;9.60;;;-0.60;92.00;;;;;;5052266;28;20200;-78
2021/01/10 04:14:47;;;;;;;14.75;10.85;;;-0.70;96.80;;;;;;5051922;28;20231;-78
2021/01/10 04:17:14;;;;;;;13.57;9.73;;;-0.70;92.30;;;;;;5052002;28;20206;-78
2021/01/10 04:19:41;;;;;;;13.18;8.70;;;-0.80;92.40;;;;;;5051798;28;20553;-78
2021/01/10 04:22:08;;;;;;;14.63;10.40;;;-0.70;92.80;;;;;;5052268;28;20196;-78
2021/01/10 04:24:35;;;;;;;12.43;10.27;;;-0.30;93.00;;;;;;5051615;28;20188;-78
2021/01/10 04:27:01;;;;;;;11.10;8.77;;;-0.80;92.90;;;;;;5051144;28;20227;-78
2021/01/10 04:29:28;;;;;;;10.25;8.40;;;-0.60;93.10;;;;;;5050768;28;20265;-78
2021/01/10 04:31:56;;;;;;;11.75;9.50;;;-0.60;92.90;;;;;;5051655;28;20192;-78
2021/01/10 04:34:23;;;;;;;12.93;8.80;;;-0.60;92.40;;;;;;5051734;28;20245;-79
2021/01/10 04:36:51;;;;;;;11.73;9.65;;;-0.50;92.50;;;;;;5050877;28;20291;-78
2021/01/10 04:39:19;;;;;;;11.57;9.95;;;-0.40;92.50;;;;;;5051648;28;20414;-78
2021/01/10 04:41:46;;;;;;;14.95;11.32;;;-0.40;92.50;;;;;;5050490;28;20282;-78
2021/01/10 04:44:14;;;;;;;15.43;10.73;;;-0.70;92.40;;;;;;5051670;28;20192;-78
2021/01/10 04:46:42;;;;;;;15.55;9.80;;;-0.20;93.40;;;;;;5051794;28;20262;-78
2021/01/10 04:49:10;;;;;;;16.20;10.05;;;-0.50;93.40;;;;;;5050496;28;20188;-78
2021/01/10 04:51:39;;;;;;;13.20;9.70;;;-0.40;93.10;;;;;;5051200;28;20560;-78
2021/01/10 04:54:08;;;;;;;12.20;8.32;;;-0.30;92.60;;;;;;5051320;28;20200;-79
2021/01/10 04:56:37;;;;;;;14.52;9.60;;;-0.20;92.30;;;;;;5051146;28;20274;-79
2021/01/10 04:59:06;;;;;;;13.75;8.50;;;0.10;92.30;;;;;;5050238;28;20673;-78
2021/01/10 05:01:37;;;;;;;12.05;8.45;;;-0.10;91.90;;;;;;5051336;28;20218;-79
2021/01/10 05:04:05;;;;;;;9.98;6.90;;;1.60;92.60;;;;;;5051174;28;20207;-79
2021/01/10 05:06:36;;;;;;;12.32;8.68;;;0.10;91.10;;;;;;5051448;28;20223;-78
2021/01/10 05:09:06;;;;;;;10.50;7.88;;;0.10;90.90;;;;;;5050609;28;20230;-78
2021/01/10 05:11:33;;;;;;;9.25;6.65;;;0.00;90.70;;;;;;5052013;28;20207;-78
2021/01/10 05:14:01;;;;;;;10.73;7.85;;;0.10;91.00;;;;;;5051495;28;20199;-78
2021/01/10 05:16:31;;;;;;;9.32;6.95;;;0.20;90.80;;;;;;5052370;28;20665;-79
2021/01/10 05:19:00;;;;;;;9.40;7.68;;;0.70;90.70;;;;;;5050279;28;20553;-79
2021/01/10 05:21:27;;;;;;;8.43;7.10;;;0.30;90.40;;;;;;5051484;28;20184;-78
2021/01/10 05:23:56;;;;;;;8.63;6.93;;;0.20;90.00;;;;;;5051274;28;20203;-78
2021/01/10 05:26:23;;;;;;;10.18;7.55;;;0.30;90.10;;;;;;5052272;28;20600;-78
2021/01/10 05:28:50;;;;;;;10.25;6.80;;;0.30;90.00;;;;;;5050834;28;20199;-78
2021/01/10 05:31:34;;;;;;;8.93;6.90;;;0.50;90.10;;;;;;5051491;28;20664;-78
2021/01/10 05:34:02;;;;;;;8.65;7.53;;;0.40;89.70;;;;;;5050191;28;20195;-78
2021/01/10 05:36:31;;;;;;;8.95;5.55;;;0.30;89.60;;;;;;5051247;28;20346;-78
2021/01/10 05:39:14;;;;;;;9.23;6.45;;;0.70;90.00;;;;;;5050403;28;20196;-79
2021/01/10 05:41:42;;;;;;;9.63;7.80;;;0.50;89.70;;;;;;5051070;28;20250;-79
2021/01/10 05:44:09;;;;;;;10.45;7.93;;;0.80;90.00;;;;;;5051360;28;20278;-79
2021/01/10 05:46:37;;;;;;;10.07;7.90;;;0.80;89.70;;;;;;5051808;28;20660;-78
2021/01/10 05:49:04;;;;;;;9.60;6.97;;;1.60;90.50;;;;;;5050075;28;20196;-79
2021/01/10 05:51:32;;;;;;;10.90;7.47;;;0.70;89.10;;;;;;5051913;28;20196;-79
2021/01/10 05:53:59;;;;;;;9.10;7.00;;;0.70;88.80;;;;;;5051413;28;20278;-78
2021/01/10 05:56:26;;;;;;;10.38;7.35;;;0.60;89.40;;;;;;5052005;28;20216;-78
2021/01/10 05:58:57;;;;;;;8.88;6.90;;;0.70;88.80;;;;;;5049900;28;20204;-79
2021/01/10 06:01:25;;;;;;;9.05;7.10;;;0.70;88.30;;;;;;5051197;28;20242;-78
2021/01/10 06:03:53;;;;;;;9.30;6.95;;;0.70;88.40;;;;;;5050680;28;20207;-79
2021/01/10 06:06:20;;;;;;;7.38;6.63;;;1.40;89.30;;;;;;5050897;28;20239;-78
2021/01/10 06:08:48;;;;;;;11.82;7.35;;;1.30;88.90;;;;;;5049815;28;20628;-78
2021/01/10 06:11:32;;;;;;;9.85;7.80;;;0.70;88.50;;;;;;5050202;28;20231;-79
2021/01/10 06:14:01;;;;;;;8.90;7.00;;;0.70;88.60;;;;;;5050381;28;20839;-78
2021/01/10 06:16:30;;;;;;;11.52;7.93;;;0.70;88.90;;;;;;5050292;28;20563;-78
2021/01/10 06:19:00;;;;;;;8.65;5.78;;;0.70;88.90;;;;;;5049999;28;20729;-79
2021/01/10 06:21:28;;;;;;;8.82;6.57;;;0.70;88.70;;;;;;5050351;28;20196;-78
2021/01/10 06:23:57;;;;;;;7.70;6.28;;;0.70;88.30;;;;;;5049570;28;20192;-78
2021/01/10 06:26:25;;;;;;;8.82;6.18;;;0.70;87.60;;;;;;5050274;28;20238;-78
2021/01/10 06:28:56;;;;;;;8.90;6.85;;;1.40;88.40;;;;;;5049429;28;20204;-78
2021/01/10 06:31:25;;;;;;;9.30;8.20;;;0.70;87.70;;;;;;5053883;28;20215;-78
2021/01/10 06:34:04;;;;;;;8.77;6.75;;;0.80;87.00;;;;;;5053710;28;20207;-78
2021/01/10 06:36:33;;;;;;;9.00;6.30;;;0.70;86.70;;;;;;5053604;28;20199;-78
2021/01/10 06:39:10;;;;;;;7.45;6.00;;;0.80;86.90;;;;;;5047644;28;20200;-78
2021/01/10 06:42:15;;;;;;;10.05;7.03;;;0.70;86.30;;;;;;5053187;28;20595;-79
2021/01/10 06:44:48;;;;;;;7.72;5.65;;;0.80;85.70;;;;;;5052402;28;20234;-78
2021/01/10 06:47:32;;;;;;;9.00;5.93;;;0.70;85.50;;;;;;5051059;28;20696;-78
2021/01/10 06:49:59;;;;;;;7.25;5.68;;;1.40;86.30;;;;;;5053666;28;20223;-78
2021/01/10 06:52:30;;;;;;;5.72;5.03;;;0.70;85.00;;;;;;5052141;28;20208;-79
2021/01/10 06:54:57;;;;;;;7.97;6.07;;;0.70;84.50;;;;;;5053558;28;20208;-79
2021/01/10 06:57:31;;;;;;;11.63;6.47;;;0.70;84.30;;;;;;5052944;28;20200;-79
2021/01/10 06:59:59;;;;;;;9.77;7.25;;;0.70;84.80;;;;;;5053816;28;20199;-80
2021/01/10 07:02:26;;;;;;;6.15;5.40;;;0.70;84.70;;;;;;5054389;28;20195;-79
2021/01/10 07:05:00;;;;;;;8.25;6.80;;;0.70;84.90;;;;;;5053723;28;20196;-79
2021/01/10 07:07:34;;;;;;;7.25;5.32;;;0.70;84.80;;;;;;5053378;28;20263;-79
2021/01/10 07:10:01;;;;;;;7.05;6.10;;;0.70;85.10;;;;;;5054097;28;20200;-79
2021/01/10 07:12:27;;;;;;;7.10;5.53;;;0.60;85.40;;;;;;5053716;28;20600;-79
2021/01/10 07:14:55;;;;;;;6.65;5.68;;;0.70;85.60;;;;;;5053421;28;20204;-79
2021/01/10 07:17:21;;;;;;;7.72;6.20;;;0.70;85.60;;;;;;5052628;28;20684;-79
2021/01/10 07:19:51;;;;;;;7.22;6.10;;;0.70;85.60;;;;;;5053032;28;20200;-79
2021/01/10 07:22:39;;;;;;;7.32;6.03;;;0.70;86.70;;;;;;5052898;28;20282;-79
2021/01/10 07:25:34;;;;;;;9.10;5.93;;;0.80;95.50;;;;;;5045199;28;20731;-79
2021/01/10 07:28:43;;;;;;;6.93;5.40;;;0.80;86.60;;;;;;5051560;28;20274;-79
2021/01/10 07:31:13;;;;;;;12.50;8.52;;;0.80;88.10;;;;;;5017697;28;20227;-79
2021/01/10 07:33:40;;;;;;;11.23;8.20;;;0.40;88.50;;;;;;5053851;28;20192;-79
2021/01/10 07:36:07;;;;;;;13.13;9.00;;;0.50;89.70;;;;;;5053947;28;20204;-79
2021/01/10 07:38:36;;;;;;;12.45;9.80;;;1.00;90.50;;;;;;5052641;28;20223;-79
2021/01/10 07:41:30;;;;;;;11.38;8.63;;;0.50;90.40;;;;;;5052565;28;20265;-80
2021/01/10 07:43:57;;;;;;;13.15;9.13;;;0.50;90.50;;;;;;5046764;28;20496;-79
2021/01/10 07:47:01;;;;;;;9.73;7.75;;;0.60;90.40;;;;;;5053365;28;20231;-79
2021/01/10 07:49:49;;;;;;;8.57;6.55;;;0.70;90.00;;;;;;5050924;28;20673;-79
2021/01/10 07:52:17;;;;;;;8.65;7.50;;;0.80;88.70;;;;;;5046760;28;20208;-79
2021/01/10 07:54:57;;;;;;;10.18;7.53;;;0.80;87.90;;;;;;5052608;28;20192;-79
2021/01/10 07:57:34;;;;;;;10.50;8.40;;;1.20;97.50;;;;;;5050931;28;20604;-79
2021/01/10 08:00:18;;;;;;;9.55;7.60;;;0.90;87.50;;;;;;5051854;28;20238;-79
2021/01/10 08:02:49;;;;;;;8.70;7.13;;;0.90;87.50;;;;;;5051535;28;20239;-79
2021/01/10 08:05:16;;;;;;;12.02;7.72;;;0.90;87.40;;;;;;5051290;28;20241;-79
2021/01/10 08:07:49;;;;;;;10.00;7.20;;;1.00;87.50;;;;;;5050414;28;20203;-78
2021/01/10 08:10:17;;;;;;;9.80;7.50;;;1.00;88.00;;;;;;5050415;28;20224;-79
2021/01/10 08:12:44;;;;;;;8.68;7.70;;;1.00;87.90;;;;;;5051184;28;20188;-79
2021/01/10 08:15:12;;;;;;;11.48;7.60;;;1.00;88.00;;;;;;5051186;28;20191;-79
2021/01/10 08:17:38;;;;;;;9.18;6.75;;;1.10;96.60;;;;;;5049942;28;20283;-79
2021/01/10 08:20:07;;;;;;;11.48;8.07;;;1.00;88.00;;;;;;5051805;28;20199;-80
2021/01/10 08:22:34;;;;;;;12.25;8.55;;;1.20;88.00;;;;;;5051313;28;20188;-80
2021/01/10 08:25:00;;;;;;;11.40;8.60;;;1.20;87.40;;;;;;5051119;28;20219;-79
2021/01/10 08:27:29;;;;;;;11.80;7.97;;;1.20;87.40;;;;;;5051233;28;20713;-79
2021/01/10 08:29:55;;;;;;;8.95;7.70;;;1.20;87.20;;;;;;5052174;28;20206;-79
2021/01/10 08:32:22;;;;;;;10.02;8.43;;;1.40;87.50;;;;;;5052517;28;20261;-79
2021/01/10 08:34:50;;;;;;;11.70;7.78;;;1.20;86.50;;;;;;5051801;28;20192;-79
2021/01/10 08:37:21;;;;;;;14.43;9.98;;;1.30;87.00;;;;;;5050839;28;20207;-80
2021/01/10 08:39:57;;;;;;;10.35;7.07;;;1.40;87.00;;;;;;5051759;28;20208;-79
2021/01/10 08:42:23;;;;;;;12.00;8.45;;;1.50;86.90;;;;;;5052353;28;20236;-80
2021/01/10 08:44:51;;;;;;;9.45;7.90;;;1.50;87.10;;;;;;5050319;28;20198;-79
2021/01/10 08:47:17;;;;;;;7.90;6.53;;;1.60;86.90;;;;;;5051196;28;20259;-79
2021/01/10 08:49:44;;;;;;;9.48;8.00;;;1.50;86.50;;;;;;5050608;28;20219;-79
2021/01/10 08:52:12;;;;;;;7.93;7.05;;;1.80;99.90;;;;;;5030405;28;20634;-79
2021/01/10 08:54:49;;;;;;;11.18;7.40;;;1.50;86.70;;;;;;5047680;28;20219;-79
2021/01/10 08:57:16;;;;;;;12.75;9.00;;;1.60;86.20;;;;;;5050972;28;20200;-79
2021/01/10 08:59:43;;;;;;;11.23;8.20;;;1.90;86.20;;;;;;5051438;28;20532;-79
2021/01/10 09:02:11;;;;;;;10.43;6.78;;;1.70;84.80;;;;;;5051200;28;20196;-79
2021/01/10 09:04:41;;;;;;;7.43;6.45;;;1.70;96.90;;;;;;5051222;28;20307;-79
2021/01/10 09:07:16;;;;;;;9.98;7.90;;;1.70;84.90;;;;;;5050948;28;20219;-79
2021/01/10 09:09:47;;;;;;;8.82;6.88;;;1.80;85.30;;;;;;5049760;28;20219;-79
2021/01/10 09:12:28;;;;;;;8.82;6.57;;;1.80;84.60;;;;;;5050751;28;20188;-79
2021/01/10 09:14:58;;;;;;;8.20;6.30;;;1.20;95.50;;;;;;5051089;28;20199;-79
2021/01/10 09:17:28;;;;;;;7.57;6.40;;;1.80;83.90;;;;;;5050810;28;20570;-79
2021/01/10 09:20:02;;;;;;;9.30;6.43;;;2.00;83.90;;;;;;5051249;28;20196;-78
2021/01/10 09:22:34;;;;;;;13.43;7.75;;;2.00;84.00;;;;;;5051118;28;20677;-79
2021/01/10 09:25:08;;;;;;;9.48;7.25;;;1.90;83.30;;;;;;5050305;28;20204;-79
2021/01/10 09:27:36;;;;;;;7.20;6.18;;;1.90;82.70;;;;;;5050266;28;20242;-79
2021/01/10 09:30:05;;;;;;;10.05;7.00;;;1.70;82.70;;;;;;5051628;28;20227;-79
2021/01/10 09:32:33;;;;;;;9.63;7.43;;;1.70;83.40;;;;;;5050893;28;20199;-79
2021/01/10 09:35:00;;;;;;;10.30;7.15;;;1.80;83.10;;;;;;5050932;28;20531;-79
2021/01/10 09:37:28;;;;;;;10.85;6.82;;;1.70;83.00;;;;;;5050001;28;20224;-78
2021/01/10 09:40:06;;;;;;;6.90;6.20;;;1.70;83.50;;;;;;5049230;28;20254;-79
2021/01/10 09:42:41;;;;;;;11.02;7.03;;;1.80;83.20;;;;;;5051240;28;20211;-79
2021/01/10 09:45:09;;;;;;;12.80;6.72;;;1.70;82.40;;;;;;5051031;28;20332;-79
2021/01/10 09:47:37;;;;;;;8.45;6.07;;;1.80;82.80;;;;;;5050321;28;20297;-79
2021/01/10 09:50:10;;;;;;;7.35;5.75;;;2.40;94.60;;;;;;5050714;28;20645;-79
2021/01/10 09:52:49;;;;;;;8.63;6.53;;;1.80;82.90;;;;;;5049138;28;20715;-78
2021/01/10 09:55:16;;;;;;;6.97;6.13;;;1.90;82.70;;;;;;5034138;28;20227;-78
2021/01/10 09:57:43;;;;;;;10.30;6.80;;;1.70;82.40;;;;;;5050221;28;20677;-78
2021/01/10 10:00:15;;;;;;;8.82;6.35;;;1.70;82.50;;;;;;5051118;28;20576;-78
2021/01/10 10:02:43;;;;;;;9.18;7.30;;;1.20;94.70;;;;;;5050497;28;20738;-78
2021/01/10 10:05:15;;;;;;;8.82;7.22;;;1.50;82.80;;;;;;5032802;28;20204;-78
2021/01/10 10:07:43;;;;;;;8.15;6.30;;;1.50;83.20;;;;;;5054141;28;20224;-78
2021/01/10 10:10:24;;;;;;;9.60;6.22;;;1.30;82.90;;;;;;5055133;28;20208;-79
2021/01/10 10:12:52;;;;;;;9.73;7.85;;;1.40;83.00;;;;;;5054736;28;20212;-78
2021/01/10 10:15:19;;;;;;;7.13;6.43;;;1.40;83.20;;;;;;5054731;28;20215;-78
2021/01/10 10:17:46;;;;;;;10.52;7.57;;;0.60;81.90;;;;;;5054310;28;20612;-79
2021/01/10 10:20:13;;;;;;;9.48;6.40;;;1.50;83.10;;;;;;5055166;28;20192;-79
2021/01/10 10:22:40;;;;;;;8.40;5.75;;;1.50;82.50;;;;;;5054425;28;20208;-79
2021/01/10 10:25:09;;;;;;;6.40;5.75;;;1.60;83.00;;;;;;5054298;28;20583;-78
2021/01/10 10:27:52;;;;;;;8.80;5.45;;;1.60;83.00;;;;;;5053007;28;20243;-78
2021/01/10 10:30:19;;;;;;;8.15;5.13;;;1.60;95.10;;;;;;5049744;28;20297;-79
2021/01/10 10:32:47;;;;;;;8.10;6.10;;;1.50;82.90;;;;;;5042643;28;20201;-79
2021/01/10 10:35:14;;;;;;;8.57;5.75;;;1.60;93.30;;;;;;5049050;28;20227;-79
2021/01/10 10:37:40;;;;;;;5.78;5.10;;;1.50;82.10;;;;;;5042057;28;20192;-79
2021/01/10 10:40:08;;;;;;;5.30;4.72;;;1.60;82.00;;;;;;5043384;28;20209;-79
2021/01/10 10:42:34;;;;;;;7.03;5.45;;;1.70;81.90;;;;;;5034797;28;20215;-79
2021/01/10 10:45:01;;;;;;;6.85;4.85;;;;;;;;;;5053305;28;20207;-79
2021/01/10 10:47:27;;;;;;;6.00;4.78;;;1.60;80.70;;;;;;5052428;28;20227;-80
2021/01/10 10:49:55;;;;;;;8.35;6.00;;;1.40;94.00;;;;;;5050513;28;20257;-79
2021/01/10 10:52:21;;;;;;;7.95;5.80;;;1.60;81.80;;;;;;5054164;28;20227;-79
2021/01/10 10:54:47;;;;;;;6.30;5.18;;;1.60;81.90;;;;;;5053447;28;20591;-80
2021/01/10 10:57:14;;;;;;;9.05;7.30;;;1.70;81.70;;;;;;5053981;28;20212;-79
2021/01/10 10:59:40;;;;;;;13.60;10.20;;;1.90;93.80;;;;;;5053730;28;20242;-79
2021/01/10 11:02:09;;;;;;;10.82;8.18;;;1.90;83.30;;;;;;5053700;28;20211;-80
2021/01/10 11:04:38;;;;;;;6.50;5.53;;;2.00;84.40;;;;;;5052665;28;20204;-79
2021/01/10 11:07:05;;;;;;;8.93;6.07;;;2.00;83.80;;;;;;5050231;28;20216;-79
2021/01/10 11:09:32;;;;;;;7.70;6.90;;;2.00;82.40;;;;;;5052062;28;20269;-79
2021/01/10 11:11:59;;;;;;;10.02;6.78;;;2.00;82.80;;;;;;5052966;28;20701;-80
2021/01/10 11:14:25;;;;;;;9.05;6.38;;;2.20;82.60;;;;;;5052338;28;20204;-80
2021/01/10 11:16:53;;;;;;;6.97;5.50;;;2.70;82.40;;;;;;5051323;28;20681;-79
2021/01/10 11:19:20;;;;;;;7.53;6.07;;;2.20;81.10;;;;;;5052277;28;20198;-80
2021/01/10 11:21:47;;;;;;;7.72;5.53;;;2.30;81.50;;;;;;5052418;28;20204;-80
2021/01/10 11:24:16;;;;;;;6.45;5.85;;;2.40;81.10;;;;;;5052820;28;20200;-79
2021/01/10 11:26:44;;;;;;;10.23;6.20;;;2.50;80.50;;;;;;5053691;28;20257;-79
2021/01/10 11:29:11;;;;;;;9.55;6.95;;;2.40;80.10;;;;;;5052642;28;20211;-80
2021/01/10 11:31:39;;;;;;;7.65;6.85;;;2.30;80.10;;;;;;5050779;28;20197;-79
2021/01/10 11:34:09;;;;;;;7.18;5.88;;;2.40;81.50;;;;;;5052242;28;20713;-79
2021/01/10 11:36:37;;;;;;;9.45;6.78;;;2.40;81.30;;;;;;5052837;28;20200;-79
2021/01/10 11:39:04;;;;;;;7.10;5.85;;;2.40;81.00;;;;;;5052322;28;20195;-81
2021/01/10 11:41:31;;;;;;;8.77;6.20;;;2.40;80.30;;;;;;5052730;28;20555;-80
2021/01/10 11:43:58;;;;;;;8.52;6.85;;;2.30;80.40;;;;;;5052681;28;20203;-80
2021/01/10 11:46:24;;;;;;;8.32;6.07;;;2.30;81.10;;;;;;5052945;28;20216;-80
2021/01/10 11:48:51;;;;;;;9.40;6.80;;;2.10;81.00;;;;;;5051782;28;20245;-80
2021/01/10 11:51:18;;;;;;;10.07;7.70;;;2.20;81.50;;;;;;5053244;28;20211;-80
2021/01/10 11:53:45;;;;;;;9.80;7.22;;;2.20;81.30;;;;;;5052888;28;20199;-80
2021/01/10 11:56:11;;;;;;;10.43;7.90;;;2.10;93.70;;;;;;5052854;28;20593;-79
2021/01/10 11:58:40;;;;;;;10.35;6.88;;;2.40;81.90;;;;;;5052168;28;20196;-80
2021/01/10 12:01:06;;;;;;;7.95;7.05;;;2.10;81.80;;;;;;5052563;28;20219;-80
2021/01/10 12:03:33;;;;;;;9.15;6.85;;;2.10;82.40;;;;;;5052551;28;20199;-80
2021/01/10 12:05:59;;;;;;;10.52;8.13;;;2.20;82.80;;;;;;5052864;28;20559;-79
2021/01/10 12:08:26;;;;;;;10.80;8.57;;;2.10;82.50;;;;;;5052135;28;20192;-80
2021/01/10 12:10:53;;;;;;;9.07;6.35;;;2.00;82.60;;;;;;5052768;28;20207;-80
2021/01/10 12:13:19;;;;;;;8.45;6.80;;;1.80;93.90;;;;;;5050825;28;20221;-79
2021/01/10 12:15:47;;;;;;;10.70;7.65;;;2.10;82.60;;;;;;5051200;28;20216;-80
2021/01/10 12:18:15;;;;;;;8.55;6.47;;;1.90;94.00;;;;;;5050515;28;20200;-80
2021/01/10 12:20:41;;;;;;;8.70;6.88;;;1.90;81.90;;;;;;5051606;28;20200;-80
2021/01/10 12:23:08;;;;;;;9.90;6.90;;;2.10;82.50;;;;;;5051023;28;20200;-80
2021/01/10 12:25:34;;;;;;;8.55;6.78;;;3.00;83.70;;;;;;5050986;28;20224;-79
2021/01/10 12:28:01;;;;;;;11.10;7.47;;;2.20;82.60;;;;;;5050553;28;20256;-79
2021/01/10 12:30:28;;;;;;;8.48;7.18;;;2.20;82.70;;;;;;5051301;28;20216;-79
2021/01/10 12:32:57;;;;;;;10.23;7.82;;;2.50;92.80;;;;;;5051017;28;20215;-80
2021/01/10 12:35:24;;;;;;;16.25;9.02;;;2.40;82.40;;;;;;5052557;28;20223;-80
2021/01/10 12:37:51;;;;;;;11.27;7.90;;;2.50;82.00;;;;;;5051061;28;20206;-79
2021/01/10 12:40:19;;;;;;;9.88;7.20;;;2.70;82.80;;;;;;5051718;28;20192;-79
2021/01/10 12:42:47;;;;;;;9.02;6.68;;;3.00;82.60;;;;;;5052044;28;20598;-80
2021/01/10 12:45:15;;;;;;;7.20;6.47;;;3.70;93.50;;;;;;5050824;28;20249;-80
2021/01/10 12:47:42;;;;;;;8.05;6.00;;;3.00;80.10;;;;;;5051239;28;20580;-80
2021/01/10 12:50:11;;;;;;;8.73;6.03;;;3.60;80.10;;;;;;5051945;28;20204;-80
2021/01/10 12:52:38;;;;;;;10.57;7.40;;;2.90;79.90;;;;;;5051076;28;20211;-80
2021/01/10 12:55:06;;;;;;;9.88;7.07;;;2.80;80.10;;;;;;5051307;28;20196;-80
2021/01/10 12:57:33;;;;;;;9.65;7.97;;;2.90;80.30;;;;;;5050466;28;20211;-80